Terminal Aerodrome Forecast
Issued by NWS

Home | Current Version | Previous Version | Text Only | Print | Product List | Glossary On
Versions: 1 2 3 4 5 6 7 8 9 10 11 12 13 14 15 16 17 18 19
000
FTUS43 KBIS 300500
TAFDIK
TAF
KDIK 300536Z 3006/0106 12013KT 3SM -SHRA BKN007 OVC013
      TEMPO 3006/3010 6SM -TSRA BKN013 OVC022CB
     FM301000 12011KT 5SM -SHRA BR OVC005
      TEMPO 3010/3014 3SM TSRA BKN010 OVC020CB
     FM301700 08012KT 4SM -SHRA VCTS SCT008 BKN012 OVC025CB
     FM010000 01010KT 5SM -SHRA BKN008 OVC012=

USA.gov is the U.S. government's official web portal to all federal, state and local government web resources and services.